Time;durP1;ratioP1;P1;durP2;ratioP2;P2;SDS_P1;SDS_P2;PMS_P1;PMS_P2;Temp;Humidity;BMP_temperature;BMP_pressure;BME280_temperature;BME280_humidity;BME280_pressure;Samples;Min_cycle;Max_cycle;Signal;HPM_P1;HPM_P2
2021/11/14 00:00:49;;;;;;;74.67;36.13;;;0.40;99.90;;;;;;4107449;28;20292;-62
2021/11/14 00:02:51;;;;;;;75.75;36.80;;;0.40;99.90;;;;;;4108843;28;20272;-74
2021/11/14 00:04:52;;;;;;;74.37;37.00;;;0.40;99.90;;;;;;4107771;28;20023;-62
2021/11/14 00:06:53;;;;;;;71.07;36.23;;;0.30;99.90;;;;;;4108904;28;20265;-64
2021/11/14 00:08:54;;;;;;;74.10;34.97;;;0.40;99.90;;;;;;4107284;28;20284;-63
2021/11/14 00:11:00;;;;;;;70.57;33.40;;;0.30;99.90;;;;;;4109006;28;20273;-63
2021/11/14 00:13:03;;;;;;;74.00;33.10;;;0.30;99.90;;;;;;4107654;28;21132;-68
2021/11/14 00:15:06;;;;;;;66.80;32.93;;;0.20;99.90;;;;;;4108585;28;20332;-73
2021/11/14 00:17:07;;;;;;;79.80;38.47;;;0.20;99.90;;;;;;4107805;28;20273;-65
2021/11/14 00:19:09;;;;;;;82.77;39.97;;;0.20;99.90;;;;;;4107973;28;20292;-71
2021/11/14 00:21:13;;;;;;;74.93;36.20;;;0.20;99.90;;;;;;4108794;28;20297;-69
2021/11/14 00:23:15;;;;;;;69.10;34.47;;;0.20;99.90;;;;;;4107069;28;20277;-72
2021/11/14 00:25:17;;;;;;;69.17;35.07;;;0.20;99.90;;;;;;4107803;28;20882;-68
2021/11/14 00:27:19;;;;;;;74.73;36.03;;;0.20;99.90;;;;;;4107308;28;20316;-64
2021/11/14 00:29:20;;;;;;;72.37;36.53;;;0.10;99.90;;;;;;4107938;28;20269;-62
2021/11/14 00:31:21;;;;;;;75.00;34.50;;;0.20;99.90;;;;;;4107450;28;20522;-62
2021/11/14 00:33:22;;;;;;;71.47;35.43;;;0.20;99.90;;;;;;4107981;28;20841;-66
2021/11/14 00:35:24;;;;;;;74.80;34.73;;;0.20;99.90;;;;;;4107241;28;20273;-61
2021/11/14 00:37:25;;;;;;;73.30;34.37;;;0.20;99.90;;;;;;4108358;28;20336;-64
2021/11/14 00:39:26;;;;;;;74.97;34.13;;;0.20;99.90;;;;;;4106697;28;20273;-67
2021/11/14 00:41:28;;;;;;;76.17;34.40;;;0.20;99.90;;;;;;4108066;28;20285;-68
2021/11/14 00:43:29;;;;;;;62.50;33.37;;;0.20;99.90;;;;;;4106936;28;20343;-62
2021/11/14 00:45:32;;;;;;;66.00;33.97;;;0.20;99.90;;;;;;4107743;28;20339;-68
2021/11/14 00:47:34;;;;;;;67.50;33.90;;;0.10;99.90;;;;;;4107297;28;20257;-63
2021/11/14 00:49:36;;;;;;;77.10;35.63;;;0.20;99.90;;;;;;4108171;28;20757;-64
2021/11/14 00:51:38;;;;;;;73.93;35.47;;;0.20;99.90;;;;;;4108089;28;20280;-67
2021/11/14 00:53:40;;;;;;;64.73;33.23;;;0.10;99.90;;;;;;4107853;28;20273;-63
2021/11/14 00:55:42;;;;;;;66.60;33.50;;;0.10;99.90;;;;;;4106684;28;20335;-66
2021/11/14 00:57:44;;;;;;;76.50;36.70;;;0.10;99.90;;;;;;4107491;28;20343;-69
2021/11/14 00:59:45;;;;;;;70.37;35.87;;;0.10;99.90;;;;;;4107863;28;20319;-64
2021/11/14 01:01:46;;;;;;;73.43;35.13;;;0.10;99.90;;;;;;4106825;28;20327;-72
2021/11/14 01:03:48;;;;;;;75.70;35.60;;;0.10;99.90;;;;;;4108139;28;20276;-69
2021/11/14 01:05:50;;;;;;;72.43;33.77;;;0.10;99.90;;;;;;4106923;28;20332;-65
2021/11/14 01:07:51;;;;;;;73.43;35.77;;;0.10;99.90;;;;;;4108110;28;20272;-66
2021/11/14 01:09:52;;;;;;;74.47;34.60;;;0.20;99.90;;;;;;4106833;28;20290;-69
2021/11/14 01:11:54;;;;;;;66.70;33.70;;;0.10;99.90;;;;;;4108375;28;20277;-64
2021/11/14 01:13:55;;;;;;;63.77;33.20;;;0.20;99.90;;;;;;4107163;28;20277;-64
2021/11/14 01:15:57;;;;;;;65.97;33.07;;;0.10;99.90;;;;;;4108133;28;20331;-63
2021/11/14 01:17:58;;;;;;;73.43;33.27;;;0.10;99.90;;;;;;4106374;28;20355;-68
2021/11/14 01:19:59;;;;;;;62.90;31.30;;;0.10;99.90;;;;;;4108211;28;20358;-67
2021/11/14 01:22:00;;;;;;;55.43;28.73;;;0.00;99.90;;;;;;4107145;28;20268;-65
2021/11/14 01:24:02;;;;;;;61.13;30.97;;;0.00;99.90;;;;;;4106654;28;20781;-64
2021/11/14 01:26:04;;;;;;;62.83;31.53;;;-0.10;99.90;;;;;;4107711;28;20304;-66
2021/11/14 01:28:06;;;;;;;61.10;31.27;;;-0.10;99.90;;;;;;4106575;28;20273;-68
2021/11/14 01:30:11;;;;;;;62.00;30.27;;;-0.10;99.90;;;;;;4107666;28;20273;-67
2021/11/14 01:32:13;;;;;;;63.63;31.40;;;-0.10;99.90;;;;;;4110749;28;20261;-69
2021/11/14 01:34:14;;;;;;;54.80;28.13;;;-0.10;99.90;;;;;;4111440;28;20327;-65
2021/11/14 01:36:16;;;;;;;53.60;26.87;;;-0.10;99.90;;;;;;4109891;28;20277;-64
2021/11/14 01:38:17;;;;;;;54.73;26.17;;;-0.10;99.90;;;;;;4111508;28;20351;-66
2021/11/14 01:40:23;;;;;;;47.87;24.23;;;-0.20;99.90;;;;;;4109665;28;20371;-67
2021/11/14 01:42:24;;;;;;;50.13;24.80;;;-0.30;99.90;;;;;;4111445;28;21171;-64
2021/11/14 01:44:25;;;;;;;50.50;24.93;;;-0.30;99.90;;;;;;4110136;28;20351;-70
2021/11/14 01:46:26;;;;;;;57.80;27.37;;;-0.40;99.90;;;;;;4110987;28;20335;-62
2021/11/14 01:48:30;;;;;;;52.87;25.20;;;-0.40;99.90;;;;;;4109854;28;21121;-64
2021/11/14 01:50:32;;;;;;;46.60;23.80;;;-0.40;99.90;;;;;;4111485;28;20749;-70
2021/11/14 01:52:33;;;;;;;51.73;26.90;;;-0.50;99.90;;;;;;4109801;28;20816;-66
2021/11/14 01:54:34;;;;;;;58.80;27.70;;;-0.50;99.90;;;;;;4110943;28;20968;-65
2021/11/14 01:56:35;;;;;;;57.77;28.50;;;-0.50;99.90;;;;;;4110025;28;20268;-63
2021/11/14 01:58:37;;;;;;;54.10;26.50;;;-0.50;99.90;;;;;;4110587;28;20284;-65
2021/11/14 02:00:46;;;;;;;52.53;25.57;;;-0.50;99.90;;;;;;4110670;28;20300;-64
2021/11/14 02:02:47;;;;;;;48.93;24.40;;;-0.50;99.90;;;;;;4109927;28;20285;-70
2021/11/14 02:04:49;;;;;;;50.37;24.87;;;-0.50;99.90;;;;;;4109774;28;20307;-66
2021/11/14 02:06:50;;;;;;;51.20;26.63;;;-0.50;99.90;;;;;;4110069;28;20264;-62
2021/11/14 02:08:53;;;;;;;47.97;23.80;;;-0.50;99.90;;;;;;4111082;28;20253;-67
2021/11/14 02:10:54;;;;;;;53.37;25.23;;;-0.50;99.90;;;;;;4108803;28;20359;-62
2021/11/14 02:12:59;;;;;;;53.70;25.67;;;-0.40;99.90;;;;;;4111057;28;20269;-67
2021/11/14 02:15:00;;;;;;;50.00;26.10;;;-0.50;99.90;;;;;;4109669;28;21049;-67
2021/11/14 02:17:03;;;;;;;60.33;28.27;;;-0.50;99.90;;;;;;4110485;28;20273;-67
2021/11/14 02:19:06;;;;;;;49.93;25.03;;;-0.50;99.90;;;;;;4109328;28;20261;-67
2021/11/14 02:21:08;;;;;;;54.60;25.30;;;-0.60;99.90;;;;;;4111051;28;20347;-65
2021/11/14 02:23:11;;;;;;;55.47;27.27;;;-0.50;99.90;;;;;;4109369;28;20284;-62
2021/11/14 02:25:15;;;;;;;58.10;29.53;;;-0.50;99.90;;;;;;4109935;28;20280;-71
2021/11/14 02:27:16;;;;;;;51.13;25.67;;;-0.50;99.90;;;;;;4109037;28;20319;-68
2021/11/14 02:29:17;;;;;;;59.87;28.47;;;-0.50;99.90;;;;;;4110234;28;20740;-65
2021/11/14 02:31:19;;;;;;;56.87;28.73;;;-0.50;99.90;;;;;;4109370;28;20277;-63
2021/11/14 02:33:21;;;;;;;56.13;28.17;;;-0.50;99.90;;;;;;4109052;28;20870;-63
2021/11/14 02:35:24;;;;;;;52.30;27.37;;;-0.50;99.90;;;;;;4109685;28;20308;-64
2021/11/14 02:37:25;;;;;;;57.10;27.77;;;-0.50;99.90;;;;;;4109742;28;20277;-64
2021/11/14 02:39:27;;;;;;;57.20;28.13;;;-0.50;99.90;;;;;;4109575;28;20627;-72
2021/11/14 02:41:28;;;;;;;60.27;30.60;;;-0.50;99.90;;;;;;4108948;28;20304;-63
2021/11/14 02:43:29;;;;;;;66.60;32.03;;;-0.50;99.90;;;;;;4110121;28;20373;-66
2021/11/14 02:45:31;;;;;;;72.73;32.20;;;-0.50;99.90;;;;;;4109215;28;20332;-67
2021/11/14 02:47:33;;;;;;;62.00;29.90;;;-0.50;99.90;;;;;;4109869;28;20339;-66
2021/11/14 02:49:35;;;;;;;64.43;31.20;;;-0.60;99.90;;;;;;4108995;28;20319;-67
2021/11/14 02:51:37;;;;;;;55.40;29.23;;;-0.50;99.90;;;;;;4110709;28;20701;-63
2021/11/14 02:53:39;;;;;;;58.90;29.73;;;-0.50;99.90;;;;;;4108766;28;20319;-73
2021/11/14 02:55:41;;;;;;;66.00;31.47;;;-0.50;99.90;;;;;;4109870;28;20277;-68
2021/11/14 02:57:42;;;;;;;69.97;34.60;;;-0.60;99.90;;;;;;4108545;28;20359;-70
2021/11/14 02:59:44;;;;;;;64.77;32.23;;;-0.70;99.90;;;;;;4109555;28;20296;-68
2021/11/14 03:01:49;;;;;;;73.57;34.67;;;-0.70;99.90;;;;;;4109203;28;20297;-69
2021/11/14 03:03:52;;;;;;;71.97;33.67;;;-0.80;99.90;;;;;;4110108;28;20272;-67
2021/11/14 03:05:53;;;;;;;75.03;35.13;;;-0.80;99.90;;;;;;4108939;28;20630;-63
2021/11/14 03:07:55;;;;;;;71.00;34.23;;;-0.90;99.90;;;;;;4109477;28;20318;-72
2021/11/14 03:09:56;;;;;;;69.57;33.43;;;-0.90;99.90;;;;;;4109042;28;20257;-67
2021/11/14 03:11:59;;;;;;;71.10;33.50;;;-1.00;99.90;;;;;;4109588;28;20669;-62
2021/11/14 03:14:02;;;;;;;68.97;32.73;;;-1.00;99.90;;;;;;4109640;28;20264;-63
2021/11/14 03:16:08;;;;;;;72.43;33.00;;;-1.00;99.90;;;;;;4108794;28;20264;-69
2021/11/14 03:18:09;;;;;;;68.17;32.90;;;-1.10;99.90;;;;;;4109113;28;20277;-65
2021/11/14 03:20:11;;;;;;;69.93;32.93;;;-1.00;99.90;;;;;;4108299;28;20343;-62
2021/11/14 03:22:12;;;;;;;69.13;31.67;;;-1.10;99.90;;;;;;4109375;28;20331;-61
2021/11/14 03:24:15;;;;;;;65.13;34.43;;;-1.00;99.90;;;;;;4107849;28;20273;-62
2021/11/14 03:26:17;;;;;;;78.40;35.33;;;-1.00;99.90;;;;;;4108780;28;20677;-62
2021/11/14 03:28:20;;;;;;;68.50;32.80;;;-1.00;99.90;;;;;;4107494;28;20269;-66
2021/11/14 03:30:23;;;;;;;55.27;29.70;;;-1.00;99.90;;;;;;4109346;28;20867;-65
2021/11/14 03:32:24;;;;;;;70.53;32.37;;;-1.00;99.90;;;;;;4108330;28;20272;-61
2021/11/14 03:34:25;;;;;;;66.13;31.70;;;-1.00;99.90;;;;;;4109277;28;20281;-67
2021/11/14 03:36:27;;;;;;;58.80;30.10;;;-0.90;99.90;;;;;;4107789;28;20277;-65
2021/11/14 03:38:36;;;;;;;67.20;32.60;;;-0.90;99.90;;;;;;4108850;28;20304;-64
2021/11/14 03:40:38;;;;;;;65.43;32.23;;;-0.90;99.90;;;;;;4107341;28;20308;-61
2021/11/14 03:42:40;;;;;;;72.17;32.60;;;-0.90;99.90;;;;;;4109031;28;20273;-64
2021/11/14 03:44:41;;;;;;;69.57;31.97;;;-0.90;99.90;;;;;;4108273;28;20327;-69
2021/11/14 03:46:42;;;;;;;67.00;32.73;;;-0.90;99.90;;;;;;4108431;28;20393;-62
2021/11/14 03:48:46;;;;;;;61.27;30.83;;;-0.90;99.90;;;;;;4108125;28;20828;-65
2021/11/14 03:50:47;;;;;;;63.83;31.17;;;-1.00;99.90;;;;;;4107693;28;20273;-67
2021/11/14 03:52:48;;;;;;;66.93;31.30;;;-1.00;99.90;;;;;;4107975;28;21116;-64
2021/11/14 03:54:50;;;;;;;62.83;31.03;;;-1.00;99.90;;;;;;4107385;28;20344;-64
2021/11/14 03:56:51;;;;;;;68.47;31.70;;;-1.10;99.90;;;;;;4109403;28;20336;-65
2021/11/14 03:58:52;;;;;;;68.97;33.17;;;-1.00;99.90;;;;;;4106405;28;20277;-62
2021/11/14 04:00:57;;;;;;;65.30;30.40;;;-1.10;99.90;;;;;;4109141;28;20824;-62
2021/11/14 04:02:58;;;;;;;67.13;30.37;;;-1.00;99.90;;;;;;4107713;28;20336;-66
2021/11/14 04:04:59;;;;;;;68.37;32.57;;;-1.00;99.90;;;;;;4108815;28;20848;-61
2021/11/14 04:07:00;;;;;;;69.27;31.37;;;-1.00;99.90;;;;;;4107795;28;20357;-64
2021/11/14 04:09:02;;;;;;;71.73;32.70;;;-1.00;99.90;;;;;;4108747;28;20284;-62
2021/11/14 04:11:04;;;;;;;67.70;32.20;;;-1.00;99.90;;;;;;4107424;28;20275;-67
2021/11/14 04:13:07;;;;;;;62.87;30.00;;;-1.00;99.90;;;;;;4108845;28;20277;-65
2021/11/14 04:15:12;;;;;;;63.00;29.40;;;-1.00;99.90;;;;;;4107630;28;20268;-63
2021/11/14 04:17:14;;;;;;;73.43;33.10;;;-1.10;99.90;;;;;;4107706;28;20284;-63
2021/11/14 04:19:15;;;;;;;59.50;30.17;;;-1.10;99.90;;;;;;4107647;28;20261;-63
2021/11/14 04:21:16;;;;;;;56.27;29.50;;;-1.10;99.90;;;;;;4108105;28;20355;-64
2021/11/14 04:23:18;;;;;;;59.97;29.23;;;-1.10;99.90;;;;;;4108354;28;20754;-65
2021/11/14 04:25:20;;;;;;;66.03;30.47;;;-1.10;99.90;;;;;;4107474;28;20269;-68
2021/11/14 04:27:21;;;;;;;59.30;28.53;;;-1.10;99.90;;;;;;4108586;28;20253;-67
2021/11/14 04:29:22;;;;;;;62.20;30.60;;;-1.10;99.90;;;;;;4107224;28;20335;-64
2021/11/14 04:31:23;;;;;;;56.43;29.00;;;-1.10;99.90;;;;;;4107922;28;20269;-68
2021/11/14 04:33:25;;;;;;;64.97;30.67;;;-1.10;99.90;;;;;;4107225;28;21140;-63
2021/11/14 04:35:26;;;;;;;55.77;29.33;;;-1.10;99.90;;;;;;4109103;28;20319;-70
2021/11/14 04:37:27;;;;;;;56.20;28.33;;;-1.20;99.90;;;;;;4106902;28;20308;-62
2021/11/14 04:39:28;;;;;;;61.00;29.30;;;-1.20;99.90;;;;;;4108061;28;20324;-64
2021/11/14 04:41:29;;;;;;;55.57;28.33;;;-1.10;99.90;;;;;;4106999;28;20343;-70
2021/11/14 04:43:31;;;;;;;59.03;27.73;;;-1.10;99.90;;;;;;4108683;28;20269;-64
2021/11/14 04:45:33;;;;;;;56.97;27.27;;;-1.20;99.90;;;;;;4107018;28;20269;-63
2021/11/14 04:47:34;;;;;;;55.37;26.03;;;-1.20;99.90;;;;;;4107986;28;20273;-65
2021/11/14 04:49:36;;;;;;;56.73;28.67;;;-1.20;99.90;;;;;;4107595;28;20319;-63
2021/11/14 04:51:37;;;;;;;63.90;29.07;;;-1.10;99.90;;;;;;4107854;28;20288;-65
2021/11/14 04:53:38;;;;;;;55.50;27.27;;;-1.10;99.90;;;;;;4108148;28;20277;-65
2021/11/14 04:55:40;;;;;;;58.70;29.53;;;-1.10;99.90;;;;;;4106432;28;20323;-62
2021/11/14 04:57:42;;;;;;;54.67;27.27;;;-1.20;99.90;;;;;;4108326;28;20265;-62
2021/11/14 04:59:43;;;;;;;52.83;25.10;;;-1.10;99.90;;;;;;4106759;28;20269;-64
2021/11/14 05:01:44;;;;;;;55.17;29.37;;;-1.10;99.90;;;;;;4108174;28;20367;-64
2021/11/14 05:03:46;;;;;;;62.40;29.30;;;-1.10;99.90;;;;;;4107036;28;20669;-62
2021/11/14 05:05:47;;;;;;;57.77;29.03;;;-1.10;99.90;;;;;;4107885;28;20327;-62
2021/11/14 05:07:49;;;;;;;66.03;30.67;;;-1.10;99.90;;;;;;4107044;28;20257;-62
2021/11/14 05:09:50;;;;;;;57.83;27.60;;;-1.10;99.90;;;;;;4108044;28;20661;-62
2021/11/14 05:11:51;;;;;;;52.20;28.03;;;-1.10;99.90;;;;;;4106695;28;20281;-66
2021/11/14 05:13:53;;;;;;;59.87;27.13;;;-1.00;99.90;;;;;;4108170;28;20285;-71
2021/11/14 05:15:54;;;;;;;60.87;27.93;;;-1.10;99.90;;;;;;4107145;28;20272;-68
2021/11/14 05:17:55;;;;;;;64.17;29.07;;;-1.10;99.90;;;;;;4107417;28;20273;-67
2021/11/14 05:19:56;;;;;;;49.83;26.57;;;-1.10;99.90;;;;;;4106774;28;20331;-67
2021/11/14 05:21:57;;;;;;;55.00;26.23;;;-1.10;99.90;;;;;;4107827;28;20843;-72
2021/11/14 05:23:58;;;;;;;55.50;27.57;;;-1.10;99.90;;;;;;4107466;28;20317;-66
2021/11/14 05:25:59;;;;;;;48.87;26.33;;;-1.10;99.90;;;;;;4106321;28;20269;-65
2021/11/14 05:28:02;;;;;;;51.07;25.03;;;-1.10;99.90;;;;;;4108073;28;20331;-64
2021/11/14 05:30:07;;;;;;;52.50;26.63;;;-1.10;99.90;;;;;;4106663;28;20265;-69
2021/11/14 05:32:09;;;;;;;49.57;25.90;;;-1.10;99.90;;;;;;4107460;28;20281;-70
2021/11/14 05:34:10;;;;;;;50.13;25.13;;;-1.10;99.90;;;;;;4106421;28;20296;-67
2021/11/14 05:36:11;;;;;;;47.80;24.20;;;-1.10;99.90;;;;;;4108261;28;20300;-74
2021/11/14 05:38:13;;;;;;;54.30;24.83;;;-1.10;99.90;;;;;;4106552;28;20665;-64
2021/11/14 05:40:14;;;;;;;45.77;23.97;;;-1.10;99.90;;;;;;4107468;28;20290;-66
2021/11/14 05:42:16;;;;;;;46.03;23.90;;;-1.00;99.90;;;;;;4106146;28;20363;-65
2021/11/14 05:44:17;;;;;;;47.67;24.37;;;-0.80;99.90;;;;;;4107142;28;20296;-64
2021/11/14 05:46:18;;;;;;;51.67;25.23;;;-0.60;99.90;;;;;;4106392;28;20669;-63
2021/11/14 05:48:19;;;;;;;51.37;25.77;;;-0.50;99.90;;;;;;4107674;28;20323;-70
2021/11/14 05:50:21;;;;;;;57.10;27.40;;;-0.50;99.90;;;;;;4106793;28;20269;-62
2021/11/14 05:52:22;;;;;;;45.53;24.00;;;-0.40;99.90;;;;;;4107028;28;20276;-67
2021/11/14 05:54:23;;;;;;;45.53;24.93;;;-0.30;99.90;;;;;;4106474;28;20328;-64
2021/11/14 05:56:25;;;;;;;51.40;25.13;;;0.00;99.90;;;;;;4106451;28;20914;-63
2021/11/14 05:58:44;;;;;;;45.63;23.37;;;0.20;99.90;;;;;;4106927;28;20257;-63
2021/11/14 06:05:15;;;;;;;48.77;24.40;;;0.90;99.90;;;;;;4106771;28;20085;-63
2021/11/14 06:07:16;;;;;;;47.63;22.67;;;1.30;99.90;;;;;;4106352;28;20742;-65
2021/11/14 06:09:18;;;;;;;48.30;22.63;;;1.60;99.90;;;;;;4106717;28;20816;-66
2021/11/14 06:11:21;;;;;;;44.50;23.03;;;1.90;99.90;;;;;;4107511;28;20673;-65
2021/11/14 06:13:25;;;;;;;45.83;22.30;;;2.30;99.90;;;;;;4106476;28;20280;-67
2021/11/14 06:15:26;;;;;;;69.33;29.20;;;2.70;99.90;;;;;;4107739;28;20273;-66
2021/11/14 06:17:28;;;;;;;74.77;31.67;;;3.20;99.90;;;;;;4108676;28;20745;-63
2021/11/14 06:19:29;;;;;;;51.27;26.13;;;3.20;99.90;;;;;;4110984;28;20340;-65
2021/11/14 06:21:30;;;;;;;52.70;24.70;;;3.10;99.90;;;;;;4109160;28;20844;-65
2021/11/14 06:23:31;;;;;;;49.87;23.33;;;3.30;99.90;;;;;;4110197;28;20276;-62
2021/11/14 06:25:33;;;;;;;52.47;25.70;;;3.60;99.90;;;;;;4108795;28;20273;-64
2021/11/14 06:27:35;;;;;;;44.67;22.77;;;3.90;99.90;;;;;;4110014;28;20331;-67
2021/11/14 06:29:36;;;;;;;38.23;20.47;;;4.10;99.90;;;;;;4109060;28;20328;-69
2021/11/14 06:31:37;;;;;;;36.93;21.90;;;4.30;99.90;;;;;;4109815;28;20089;-68
2021/11/14 06:33:39;;;;;;;34.07;20.33;;;4.30;99.90;;;;;;4107236;28;20121;-73
2021/11/14 06:35:40;;;;;;;33.17;19.70;;;4.30;99.90;;;;;;4109512;28;20090;-69
2021/11/14 06:37:41;;;;;;;37.27;22.47;;;4.30;99.90;;;;;;4109379;28;20023;-69
2021/11/14 06:39:43;;;;;;;36.60;20.73;;;4.10;99.90;;;;;;4108497;28;20110;-70
2021/11/14 06:41:44;;;;;;;35.77;21.53;;;3.90;99.90;;;;;;4109342;28;20466;-64
2021/11/14 06:43:46;;;;;;;38.67;22.17;;;3.50;99.90;;;;;;4107964;28;20054;-73
2021/11/14 06:45:47;;;;;;;38.73;22.07;;;3.40;99.90;;;;;;4109218;28;20086;-64
2021/11/14 06:47:48;;;;;;;38.13;23.93;;;3.60;99.90;;;;;;4107729;28;20113;-63
2021/11/14 06:49:52;;;;;;;45.13;25.60;;;3.80;99.90;;;;;;4109644;28;20046;-70
2021/11/14 06:51:53;;;;;;;50.87;27.43;;;3.80;99.90;;;;;;4108227;28;20051;-66
2021/11/14 06:53:54;;;;;;;49.93;26.63;;;3.80;99.90;;;;;;4110306;28;20097;-69
2021/11/14 06:55:55;;;;;;;48.37;27.07;;;3.90;99.90;;;;;;4108221;28;20376;-62
2021/11/14 06:57:57;;;;;;;44.80;25.53;;;4.00;99.90;;;;;;4109742;28;20195;-63
2021/11/14 06:59:58;;;;;;;44.90;25.40;;;4.20;99.90;;;;;;4108086;28;20050;-66
2021/11/14 07:01:59;;;;;;;48.73;28.33;;;4.00;99.90;;;;;;4109101;28;20051;-67
2021/11/14 07:04:02;;;;;;;55.80;30.17;;;3.80;99.90;;;;;;4108285;28;20446;-65
2021/11/14 07:06:03;;;;;;;69.63;34.27;;;3.60;99.90;;;;;;4108350;28;20443;-68
2021/11/14 07:08:04;;;;;;;74.67;38.93;;;3.70;99.90;;;;;;4108599;28;20035;-71
2021/11/14 07:10:08;;;;;;;78.03;39.67;;;3.70;99.90;;;;;;4108320;28;20035;-65
2021/11/14 07:12:10;;;;;;;81.60;41.50;;;3.70;99.90;;;;;;4109234;28;20501;-63
2021/11/14 07:14:12;;;;;;;69.40;38.93;;;3.90;99.90;;;;;;4106951;28;20085;-63
2021/11/14 07:16:14;;;;;;;75.17;40.53;;;4.00;99.90;;;;;;4109615;28;20038;-66
2021/11/14 07:18:15;;;;;;;61.67;35.60;;;4.00;99.90;;;;;;4108556;28;20522;-66
2021/11/14 07:20:17;;;;;;;59.17;34.27;;;3.90;99.90;;;;;;4109725;28;20038;-72
2021/11/14 07:22:19;;;;;;;60.77;33.97;;;3.80;99.90;;;;;;4108657;28;20454;-69
2021/11/14 07:24:21;;;;;;;60.50;33.93;;;3.80;99.90;;;;;;4107035;28;20273;-62
2021/11/14 07:26:22;;;;;;;57.40;34.53;;;3.80;99.90;;;;;;4108393;28;20093;-64
2021/11/14 07:28:23;;;;;;;63.23;34.67;;;4.20;99.90;;;;;;4108195;28;20343;-68
2021/11/14 07:30:25;;;;;;;57.60;33.77;;;4.50;99.90;;;;;;4108243;28;20039;-64
2021/11/14 07:32:26;;;;;;;69.40;32.20;;;4.90;99.90;;;;;;4109072;28;20357;-72
2021/11/14 07:34:28;;;;;;;54.73;28.87;;;5.20;99.90;;;;;;4107629;28;20034;-65
2021/11/14 07:36:29;;;;;;;45.80;26.93;;;5.60;99.90;;;;;;4108928;28;20144;-67
2021/11/14 07:38:30;;;;;;;53.03;28.67;;;5.50;99.90;;;;;;4107691;28;20289;-65
2021/11/14 07:40:32;;;;;;;42.53;25.47;;;5.50;99.90;;;;;;4108790;28;20265;-63
2021/11/14 07:42:34;;;;;;;50.90;25.70;;;5.60;99.90;;;;;;4108413;28;20285;-63
2021/11/14 07:44:36;;;;;;;48.23;27.77;;;5.50;99.90;;;;;;4107188;28;20046;-67
2021/11/14 07:46:37;;;;;;;53.77;29.37;;;5.60;99.90;;;;;;4108332;28;20269;-65
2021/11/14 07:48:39;;;;;;;51.47;26.90;;;5.70;99.90;;;;;;4107942;28;20317;-67
2021/11/14 07:50:40;;;;;;;49.93;28.77;;;5.90;99.90;;;;;;4108659;28;21105;-68
2021/11/14 07:52:43;;;;;;;49.53;27.10;;;5.90;99.90;;;;;;4107703;28;20320;-65
2021/11/14 07:54:44;;;;;;;50.67;27.33;;;5.90;99.90;;;;;;4108556;28;20050;-64
2021/11/14 07:56:45;;;;;;;50.87;27.60;;;5.90;99.90;;;;;;4107751;28;20097;-65
2021/11/14 07:58:47;;;;;;;51.67;27.47;;;5.60;99.90;;;;;;4108431;28;20351;-68
2021/11/14 08:00:49;;;;;;;42.00;25.67;;;5.50;99.90;;;;;;4107103;28;20101;-65
2021/11/14 08:02:51;;;;;;;53.57;27.10;;;5.40;99.90;;;;;;4108202;28;20113;-68
2021/11/14 08:04:52;;;;;;;51.97;25.33;;;5.50;99.90;;;;;;4107612;28;20031;-63
2021/11/14 08:06:55;;;;;;;48.97;25.40;;;5.50;99.90;;;;;;4109003;28;21108;-69
2021/11/14 08:08:56;;;;;;;42.20;23.10;;;5.40;99.90;;;;;;4107541;28;20821;-66
2021/11/14 08:10:58;;;;;;;41.60;23.87;;;5.30;99.90;;;;;;4108555;28;20027;-63
2021/11/14 08:13:00;;;;;;;39.60;22.07;;;5.40;99.90;;;;;;4107796;28;20726;-75
2021/11/14 08:15:02;;;;;;;44.43;24.50;;;5.40;99.90;;;;;;4107460;28;20343;-71
2021/11/14 08:17:03;;;;;;;40.07;21.40;;;5.40;99.90;;;;;;4107989;28;20098;-64
2021/11/14 08:19:05;;;;;;;52.20;24.40;;;5.60;99.90;;;;;;4107640;28;20276;-65
2021/11/14 08:21:06;;;;;;;48.13;21.90;;;5.70;99.90;;;;;;4109012;28;20351;-65
2021/11/14 08:23:08;;;;;;;40.63;22.17;;;5.80;99.90;;;;;;4106642;28;20359;-65
2021/11/14 08:25:10;;;;;;;45.73;24.47;;;5.70;99.90;;;;;;4107657;28;20749;-72
2021/11/14 08:27:11;;;;;;;47.67;23.77;;;5.60;99.90;;;;;;4106320;28;20316;-68
2021/11/14 08:29:12;;;;;;;49.43;25.87;;;5.80;99.90;;;;;;4108695;28;20656;-63
2021/11/14 08:31:20;;;;;;;48.83;25.53;;;5.80;99.90;;;;;;4106523;28;20316;-65
2021/11/14 08:33:21;;;;;;;46.93;25.27;;;5.90;99.90;;;;;;4108430;28;20034;-70
2021/11/14 08:35:23;;;;;;;45.17;24.83;;;5.90;99.90;;;;;;4106410;28;20043;-62
2021/11/14 08:37:24;;;;;;;46.93;26.33;;;5.80;99.90;;;;;;4108390;28;20034;-62
2021/11/14 08:39:26;;;;;;;43.20;24.40;;;5.70;99.90;;;;;;4106269;28;20527;-63
2021/11/14 08:41:27;;;;;;;45.33;24.63;;;5.70;99.90;;;;;;4107864;28;20097;-66
2021/11/14 08:43:28;;;;;;;42.23;23.67;;;5.70;99.90;;;;;;4106371;28;20531;-67
2021/11/14 08:45:31;;;;;;;45.53;23.87;;;5.80;99.90;;;;;;4107096;28;20472;-64
2021/11/14 08:47:33;;;;;;;39.30;22.37;;;5.90;99.90;;;;;;4106889;28;20829;-65
2021/11/14 08:49:34;;;;;;;40.90;22.63;;;6.10;99.90;;;;;;4106676;28;20368;-65
2021/11/14 08:51:35;;;;;;;46.40;24.83;;;6.00;99.90;;;;;;4107718;28;20031;-65
2021/11/14 08:53:37;;;;;;;46.17;23.80;;;5.90;99.90;;;;;;4106587;28;20507;-67
2021/11/14 08:55:38;;;;;;;41.73;24.03;;;5.90;99.90;;;;;;4107114;28;20101;-65
2021/11/14 08:57:39;;;;;;;44.23;23.50;;;5.90;99.90;;;;;;4105784;28;20090;-63
2021/11/14 08:59:40;;;;;;;39.60;24.50;;;6.00;99.90;;;;;;4108166;28;20034;-65
2021/11/14 09:01:42;;;;;;;44.63;22.90;;;6.40;99.90;;;;;;4106236;28;20039;-63
2021/11/14 09:03:43;;;;;;;45.70;23.07;;;6.80;99.90;;;;;;4107652;28;20035;-63
2021/11/14 09:05:44;;;;;;;48.03;23.60;;;7.00;99.90;;;;;;4106369;28;20026;-61
2021/11/14 09:07:45;;;;;;;42.20;22.90;;;7.10;99.90;;;;;;4107965;28;20089;-62
2021/11/14 09:09:47;;;;;;;41.70;24.17;;;7.00;99.90;;;;;;4105682;28;20043;-68
2021/11/14 09:11:49;;;;;;;49.23;26.53;;;6.80;99.90;;;;;;4107862;28;20031;-66
2021/11/14 09:13:50;;;;;;;44.10;24.73;;;6.80;99.90;;;;;;4106466;28;20030;-65
2021/11/14 09:15:52;;;;;;;39.67;21.57;;;6.80;99.90;;;;;;4107585;28;20468;-64
2021/11/14 09:17:54;;;;;;;40.83;22.10;;;6.80;99.90;;;;;;4106823;28;20837;-63
2021/11/14 09:19:55;;;;;;;42.60;23.33;;;6.90;99.90;;;;;;4106783;28;20051;-64
2021/11/14 09:21:56;;;;;;;50.47;26.87;;;7.10;99.90;;;;;;4107112;28;20451;-65
2021/11/14 09:23:57;;;;;;;50.70;27.50;;;7.20;99.90;;;;;;4106412;28;20034;-64
2021/11/14 09:25:59;;;;;;;49.87;29.20;;;7.20;99.90;;;;;;4106635;28;20094;-63
2021/11/14 09:28:00;;;;;;;59.33;31.67;;;7.10;99.90;;;;;;4106166;28;20054;-62
2021/11/14 09:30:01;;;;;;;55.40;32.20;;;7.00;99.90;;;;;;4107186;28;20043;-62
2021/11/14 09:32:03;;;;;;;59.60;34.20;;;7.10;99.90;;;;;;4106192;28;20035;-63
2021/11/14 09:34:05;;;;;;;54.83;31.83;;;7.00;99.90;;;;;;4105658;28;20046;-63
2021/11/14 09:36:07;;;;;;;62.33;34.63;;;6.80;99.90;;;;;;4106091;28;20035;-63
2021/11/14 09:38:09;;;;;;;61.60;36.37;;;6.80;99.90;;;;;;4106985;28;20809;-65
2021/11/14 09:40:10;;;;;;;58.87;35.07;;;6.70;99.90;;;;;;4105424;28;20050;-65
2021/11/14 09:42:12;;;;;;;53.73;31.00;;;6.60;99.90;;;;;;4107178;28;20034;-69
2021/11/14 09:44:16;;;;;;;52.67;31.30;;;6.60;99.90;;;;;;4106453;28;20056;-63
2021/11/14 09:46:17;;;;;;;64.27;32.80;;;6.70;99.90;;;;;;4106826;28;20110;-63
2021/11/14 09:48:20;;;;;;;50.93;31.07;;;6.80;99.90;;;;;;4106043;28;20526;-69
2021/11/14 09:50:22;;;;;;;50.47;29.53;;;6.90;99.90;;;;;;4106347;28;20031;-67
2021/11/14 09:52:25;;;;;;;51.57;28.70;;;7.00;99.90;;;;;;4108680;28;20050;-65
2021/11/14 09:54:28;;;;;;;58.67;30.60;;;7.00;99.90;;;;;;4109096;28;20475;-65
2021/11/14 09:56:29;;;;;;;59.80;28.93;;;6.90;99.90;;;;;;4109054;28;20113;-63
2021/11/14 09:58:30;;;;;;;47.63;28.30;;;6.90;99.90;;;;;;4108714;28;20243;-66
2021/11/14 10:00:33;;;;;;;47.37;27.30;;;6.90;99.90;;;;;;4109783;28;20035;-61
2021/11/14 10:02:37;;;;;;;52.70;30.50;;;6.90;99.90;;;;;;4108710;28;20055;-63
2021/11/14 10:04:38;;;;;;;49.63;28.23;;;7.00;99.90;;;;;;4109345;28;20089;-64
2021/11/14 10:06:39;;;;;;;49.83;30.07;;;7.10;99.90;;;;;;4108010;28;20123;-65
2021/11/14 10:08:45;;;;;;;54.53;27.97;;;7.20;99.90;;;;;;4110168;28;20155;-67
2021/11/14 10:10:54;;;;;;;47.30;26.83;;;7.20;99.90;;;;;;4108641;28;20073;-67
2021/11/14 10:12:55;;;;;;;41.40;24.30;;;7.20;99.90;;;;;;4109780;28;20042;-64
2021/11/14 10:15:18;;;;;;;40.23;24.57;;;7.20;99.90;;;;;;4108141;28;20027;-63
2021/11/14 10:17:23;;;;;;;39.83;22.57;;;7.20;99.90;;;;;;4109556;28;20039;-64
2021/11/14 10:19:25;;;;;;;44.70;23.90;;;7.30;99.90;;;;;;4108083;28;20039;-64
2021/11/14 10:21:31;;;;;;;43.10;22.43;;;7.40;99.90;;;;;;4110088;28;20625;-64
2021/11/14 10:23:33;;;;;;;37.00;22.30;;;7.50;99.90;;;;;;4107948;28;20035;-63
2021/11/14 10:25:36;;;;;;;35.87;22.33;;;7.60;99.90;;;;;;4108470;28;20043;-66
2021/11/14 10:27:37;;;;;;;40.20;23.70;;;7.60;99.90;;;;;;4108356;28;20475;-63